Terminal Aerodrome Forecast
Issued by NWS

Home | Current Version | Previous Version | Text Only | Print | Product List | Glossary On
Versions: 1 2 3 4 5 6 7 8 9 10 11 12 13 14 15 16 17 18 19 20 21 22
000
FTUS43 KIND 272100 AAB
TAFLAF
TAF AMD
KLAF 272111Z 2721/2818 28012G22KT 2SM -SHRA BR OVC006
     FM280000 29010KT 6SM -SHRA BR OVC010
     FM280400 32007KT P6SM OVC012
     FM281000 33007KT P6SM SCT025 BKN180=

USA.gov is the U.S. government's official web portal to all federal, state and local government web resources and services.